sensor_id;sensor_type;location;lat;lon;timestamp;temperature;humidity
53904;DHT22;39812;52.430;16.936;2023-04-28T00:02:00;3.40;93.50
53904;DHT22;39812;52.430;16.936;2023-04-28T00:04:26;3.30;93.70
53904;DHT22;39812;52.430;16.936;2023-04-28T00:06:52;3.30;93.70
53904;DHT22;39812;52.430;16.936;2023-04-28T00:09:17;3.30;93.90
53904;DHT22;39812;52.430;16.936;2023-04-28T00:11:44;3.20;94.10
53904;DHT22;39812;52.430;16.936;2023-04-28T00:14:10;3.20;94.30
53904;DHT22;39812;52.430;16.936;2023-04-28T00:16:36;3.00;94.40
53904;DHT22;39812;52.430;16.936;2023-04-28T00:19:01;2.90;94.80
53904;DHT22;39812;52.430;16.936;2023-04-28T00:21:27;2.80;95.50
53904;DHT22;39812;52.430;16.936;2023-04-28T00:23:53;2.60;97.70
53904;DHT22;39812;52.430;16.936;2023-04-28T00:26:18;2.50;98.40
53904;DHT22;39812;52.430;16.936;2023-04-28T00:28:45;2.30;98.80
53904;DHT22;39812;52.430;16.936;2023-04-28T00:31:11;2.30;99.90
53904;DHT22;39812;52.430;16.936;2023-04-28T00:33:41;2.10;99.90
53904;DHT22;39812;52.430;16.936;2023-04-28T00:36:08;2.00;99.90
53904;DHT22;39812;52.430;16.936;2023-04-28T00:38:34;1.80;99.90
53904;DHT22;39812;52.430;16.936;2023-04-28T00:41:00;1.80;99.90
53904;DHT22;39812;52.430;16.936;2023-04-28T00:43:25;1.80;99.90
53904;DHT22;39812;52.430;16.936;2023-04-28T00:45:51;1.70;99.90
53904;DHT22;39812;52.430;16.936;2023-04-28T00:48:18;1.60;99.90
53904;DHT22;39812;52.430;16.936;2023-04-28T00:50:44;1.50;99.90
53904;DHT22;39812;52.430;16.936;2023-04-28T00:53:11;1.40;99.90
53904;DHT22;39812;52.430;16.936;2023-04-28T00:55:37;1.40;99.90
53904;DHT22;39812;52.430;16.936;2023-04-28T00:58:04;1.40;99.90
53904;DHT22;39812;52.430;16.936;2023-04-28T01:00:30;1.60;99.90
53904;DHT22;39812;52.430;16.936;2023-04-28T01:02:56;1.80;99.90
53904;DHT22;39812;52.430;16.936;2023-04-28T01:05:27;1.80;99.90
53904;DHT22;39812;52.430;16.936;2023-04-28T01:07:53;1.90;99.90
53904;DHT22;39812;52.430;16.936;2023-04-28T01:10:19;1.70;99.90
53904;DHT22;39812;52.430;16.936;2023-04-28T01:12:45;1.50;99.90
53904;DHT22;39812;52.430;16.936;2023-04-28T01:15:18;1.50;99.90
53904;DHT22;39812;52.430;16.936;2023-04-28T01:17:47;1.30;99.90
53904;DHT22;39812;52.430;16.936;2023-04-28T01:20:13;1.20;99.90
53904;DHT22;39812;52.430;16.936;2023-04-28T01:22:39;1.10;99.90
53904;DHT22;39812;52.430;16.936;2023-04-28T01:25:05;1.10;99.90
53904;DHT22;39812;52.430;16.936;2023-04-28T01:27:31;1.00;99.90
53904;DHT22;39812;52.430;16.936;2023-04-28T01:29:57;1.00;99.90
53904;DHT22;39812;52.430;16.936;2023-04-28T01:32:23;1.00;99.90
53904;DHT22;39812;52.430;16.936;2023-04-28T01:34:48;1.00;99.90
53904;DHT22;39812;52.430;16.936;2023-04-28T01:37:14;1.00;99.90
53904;DHT22;39812;52.430;16.936;2023-04-28T01:39:39;0.90;99.90
53904;DHT22;39812;52.430;16.936;2023-04-28T01:42:05;0.70;99.90
53904;DHT22;39812;52.430;16.936;2023-04-28T01:44:31;0.70;99.90
53904;DHT22;39812;52.430;16.936;2023-04-28T01:46:56;0.60;99.90
53904;DHT22;39812;52.430;16.936;2023-04-28T01:49:22;0.50;99.90
53904;DHT22;39812;52.430;16.936;2023-04-28T01:51:48;0.50;99.90
53904;DHT22;39812;52.430;16.936;2023-04-28T01:54:14;0.40;99.90
53904;DHT22;39812;52.430;16.936;2023-04-28T01:56:39;0.50;99.90
53904;DHT22;39812;52.430;16.936;2023-04-28T01:59:05;0.40;99.90
53904;DHT22;39812;52.430;16.936;2023-04-28T02:01:31;0.40;99.90
53904;DHT22;39812;52.430;16.936;2023-04-28T02:03:56;0.40;99.90
53904;DHT22;39812;52.430;16.936;2023-04-28T02:06:22;0.30;99.90
53904;DHT22;39812;52.430;16.936;2023-04-28T02:08:47;0.30;99.90
53904;DHT22;39812;52.430;16.936;2023-04-28T02:11:13;0.30;99.90
53904;DHT22;39812;52.430;16.936;2023-04-28T02:13:38;0.30;99.90
53904;DHT22;39812;52.430;16.936;2023-04-28T02:16:04;0.40;99.90
53904;DHT22;39812;52.430;16.936;2023-04-28T02:18:30;0.50;99.90
53904;DHT22;39812;52.430;16.936;2023-04-28T02:20:56;0.50;99.90
53904;DHT22;39812;52.430;16.936;2023-04-28T02:23:21;0.50;99.90
53904;DHT22;39812;52.430;16.936;2023-04-28T02:25:47;0.30;99.90
53904;DHT22;39812;52.430;16.936;2023-04-28T02:28:13;0.30;99.90
53904;DHT22;39812;52.430;16.936;2023-04-28T02:30:38;0.20;99.90
53904;DHT22;39812;52.430;16.936;2023-04-28T02:33:04;0.10;99.90
53904;DHT22;39812;52.430;16.936;2023-04-28T02:35:29;0.10;99.90
53904;DHT22;39812;52.430;16.936;2023-04-28T02:37:55;0.00;99.90
53904;DHT22;39812;52.430;16.936;2023-04-28T02:40:21;0.00;99.90
53904;DHT22;39812;52.430;16.936;2023-04-28T02:42:46;0.00;99.90
53904;DHT22;39812;52.430;16.936;2023-04-28T02:45:12;0.00;99.90
53904;DHT22;39812;52.430;16.936;2023-04-28T02:47:38;0.10;99.90
53904;DHT22;39812;52.430;16.936;2023-04-28T02:50:03;0.00;99.90
53904;DHT22;39812;52.430;16.936;2023-04-28T02:52:29;0.00;99.90
53904;DHT22;39812;52.430;16.936;2023-04-28T02:54:55;0.00;99.90
53904;DHT22;39812;52.430;16.936;2023-04-28T02:57:22;0.10;99.90
53904;DHT22;39812;52.430;16.936;2023-04-28T02:59:48;0.00;99.90
53904;DHT22;39812;52.430;16.936;2023-04-28T03:02:13;0.00;99.90
53904;DHT22;39812;52.430;16.936;2023-04-28T03:04:40;-0.10;99.90
53904;DHT22;39812;52.430;16.936;2023-04-28T03:07:06;0.00;99.90
53904;DHT22;39812;52.430;16.936;2023-04-28T03:09:31;-0.10;99.90
53904;DHT22;39812;52.430;16.936;2023-04-28T03:11:57;0.00;99.90
53904;DHT22;39812;52.430;16.936;2023-04-28T03:14:23;-0.10;99.90
53904;DHT22;39812;52.430;16.936;2023-04-28T03:16:48;-0.10;99.90
53904;DHT22;39812;52.430;16.936;2023-04-28T03:19:15;-0.10;99.90
53904;DHT22;39812;52.430;16.936;2023-04-28T03:21:40;-0.10;99.90
53904;DHT22;39812;52.430;16.936;2023-04-28T03:24:06;-0.20;99.90
53904;DHT22;39812;52.430;16.936;2023-04-28T03:26:32;-0.20;99.90
53904;DHT22;39812;52.430;16.936;2023-04-28T03:28:58;-0.20;99.90
53904;DHT22;39812;52.430;16.936;2023-04-28T03:31:23;-0.20;99.90
53904;DHT22;39812;52.430;16.936;2023-04-28T03:33:49;-0.20;99.90
53904;DHT22;39812;52.430;16.936;2023-04-28T03:36:15;-0.10;99.90
53904;DHT22;39812;52.430;16.936;2023-04-28T03:38:40;0.00;99.90
53904;DHT22;39812;52.430;16.936;2023-04-28T03:41:06;0.10;99.90
53904;DHT22;39812;52.430;16.936;2023-04-28T03:43:32;0.10;99.90
53904;DHT22;39812;52.430;16.936;2023-04-28T03:45:59;0.20;99.90
53904;DHT22;39812;52.430;16.936;2023-04-28T03:48:25;0.30;99.90
53904;DHT22;39812;52.430;16.936;2023-04-28T03:50:51;0.30;99.90
53904;DHT22;39812;52.430;16.936;2023-04-28T03:53:16;0.30;99.90
53904;DHT22;39812;52.430;16.936;2023-04-28T03:55:42;0.30;99.90
53904;DHT22;39812;52.430;16.936;2023-04-28T03:58:08;0.40;99.90
53904;DHT22;39812;52.430;16.936;2023-04-28T04:00:34;0.50;99.90
53904;DHT22;39812;52.430;16.936;2023-04-28T04:02:59;0.60;99.90
53904;DHT22;39812;52.430;16.936;2023-04-28T04:05:25;0.60;99.90
53904;DHT22;39812;52.430;16.936;2023-04-28T04:07:51;0.70;99.90
53904;DHT22;39812;52.430;16.936;2023-04-28T04:10:17;0.70;99.90
53904;DHT22;39812;52.430;16.936;2023-04-28T04:12:43;0.80;99.90
53904;DHT22;39812;52.430;16.936;2023-04-28T04:15:08;0.90;99.90
53904;DHT22;39812;52.430;16.936;2023-04-28T04:17:34;1.00;99.90
53904;DHT22;39812;52.430;16.936;2023-04-28T04:20:00;1.10;99.90
53904;DHT22;39812;52.430;16.936;2023-04-28T04:22:25;1.20;99.90
53904;DHT22;39812;52.430;16.936;2023-04-28T04:24:51;1.30;99.90
53904;DHT22;39812;52.430;16.936;2023-04-28T04:27:16;1.40;99.90
53904;DHT22;39812;52.430;16.936;2023-04-28T04:29:42;1.60;99.90
53904;DHT22;39812;52.430;16.936;2023-04-28T04:32:08;1.60;99.90
53904;DHT22;39812;52.430;16.936;2023-04-28T04:34:33;1.80;99.90
53904;DHT22;39812;52.430;16.936;2023-04-28T04:36:59;1.80;99.90
53904;DHT22;39812;52.430;16.936;2023-04-28T04:39:24;1.90;99.90
53904;DHT22;39812;52.430;16.936;2023-04-28T04:41:50;2.00;99.90
53904;DHT22;39812;52.430;16.936;2023-04-28T04:44:15;2.20;99.90
53904;DHT22;39812;52.430;16.936;2023-04-28T04:46:41;2.30;99.90
53904;DHT22;39812;52.430;16.936;2023-04-28T04:49:07;2.40;99.90
53904;DHT22;39812;52.430;16.936;2023-04-28T04:51:32;2.50;99.90
53904;DHT22;39812;52.430;16.936;2023-04-28T04:53:58;2.50;99.90
53904;DHT22;39812;52.430;16.936;2023-04-28T04:56:24;2.60;99.90
53904;DHT22;39812;52.430;16.936;2023-04-28T04:58:50;2.70;99.90
53904;DHT22;39812;52.430;16.936;2023-04-28T05:01:16;2.80;99.90
53904;DHT22;39812;52.430;16.936;2023-04-28T05:03:42;2.90;99.90
53904;DHT22;39812;52.430;16.936;2023-04-28T05:06:07;3.00;99.90
53904;DHT22;39812;52.430;16.936;2023-04-28T05:08:33;3.10;99.90
53904;DHT22;39812;52.430;16.936;2023-04-28T05:10:59;3.20;99.90
53904;DHT22;39812;52.430;16.936;2023-04-28T05:13:24;3.30;99.90
53904;DHT22;39812;52.430;16.936;2023-04-28T05:15:50;3.40;99.90
53904;DHT22;39812;52.430;16.936;2023-04-28T05:18:16;3.50;99.90
53904;DHT22;39812;52.430;16.936;2023-04-28T05:20:41;3.50;99.90
53904;DHT22;39812;52.430;16.936;2023-04-28T05:23:07;3.60;99.90
53904;DHT22;39812;52.430;16.936;2023-04-28T05:25:32;3.70;99.90
53904;DHT22;39812;52.430;16.936;2023-04-28T05:27:58;3.80;99.90
53904;DHT22;39812;52.430;16.936;2023-04-28T05:30:29;3.90;99.90
53904;DHT22;39812;52.430;16.936;2023-04-28T05:32:54;4.00;99.90
53904;DHT22;39812;52.430;16.936;2023-04-28T05:35:20;4.10;99.90
53904;DHT22;39812;52.430;16.936;2023-04-28T05:37:45;4.20;99.90
53904;DHT22;39812;52.430;16.936;2023-04-28T05:40:11;4.30;99.90
53904;DHT22;39812;52.430;16.936;2023-04-28T05:42:37;4.40;99.90
53904;DHT22;39812;52.430;16.936;2023-04-28T05:45:03;4.50;99.90
53904;DHT22;39812;52.430;16.936;2023-04-28T05:47:28;4.60;99.90
53904;DHT22;39812;52.430;16.936;2023-04-28T05:49:55;4.70;99.90
53904;DHT22;39812;52.430;16.936;2023-04-28T05:52:21;4.80;99.90
53904;DHT22;39812;52.430;16.936;2023-04-28T05:54:46;4.90;99.90
53904;DHT22;39812;52.430;16.936;2023-04-28T05:57:12;5.00;99.90
53904;DHT22;39812;52.430;16.936;2023-04-28T05:59:37;5.20;99.90
53904;DHT22;39812;52.430;16.936;2023-04-28T06:02:03;5.30;99.90
53904;DHT22;39812;52.430;16.936;2023-04-28T06:04:28;5.50;99.90
53904;DHT22;39812;52.430;16.936;2023-04-28T06:06:54;5.60;99.90
53904;DHT22;39812;52.430;16.936;2023-04-28T06:09:20;5.70;99.90
53904;DHT22;39812;52.430;16.936;2023-04-28T06:11:46;5.90;99.90
53904;DHT22;39812;52.430;16.936;2023-04-28T06:14:12;6.00;99.90
53904;DHT22;39812;52.430;16.936;2023-04-28T06:16:38;6.10;99.90
53904;DHT22;39812;52.430;16.936;2023-04-28T06:19:03;6.30;99.90
53904;DHT22;39812;52.430;16.936;2023-04-28T06:21:29;6.40;99.70
53904;DHT22;39812;52.430;16.936;2023-04-28T06:23:56;6.50;99.10
53904;DHT22;39812;52.430;16.936;2023-04-28T06:26:23;6.60;98.80
53904;DHT22;39812;52.430;16.936;2023-04-28T06:28:48;6.80;98.10
53904;DHT22;39812;52.430;16.936;2023-04-28T06:31:15;6.90;97.70
53904;DHT22;39812;52.430;16.936;2023-04-28T06:33:40;7.10;97.10
53904;DHT22;39812;52.430;16.936;2023-04-28T06:36:06;7.20;96.70
53904;DHT22;39812;52.430;16.936;2023-04-28T06:38:32;7.30;96.30
53904;DHT22;39812;52.430;16.936;2023-04-28T06:40:58;7.40;95.70
53904;DHT22;39812;52.430;16.936;2023-04-28T06:43:23;7.60;95.00
53904;DHT22;39812;52.430;16.936;2023-04-28T06:45:49;7.70;94.50
53904;DHT22;39812;52.430;16.936;2023-04-28T06:48:14;7.90;93.70
53904;DHT22;39812;52.430;16.936;2023-04-28T06:50:40;8.00;93.30
53904;DHT22;39812;52.430;16.936;2023-04-28T06:53:06;8.20;91.90
53904;DHT22;39812;52.430;16.936;2023-04-28T06:55:33;8.40;90.50
53904;DHT22;39812;52.430;16.936;2023-04-28T06:58:00;8.50;89.30
53904;DHT22;39812;52.430;16.936;2023-04-28T07:00:26;8.60;87.50
53904;DHT22;39812;52.430;16.936;2023-04-28T07:02:51;8.60;86.90
53904;DHT22;39812;52.430;16.936;2023-04-28T07:05:17;8.70;86.90
53904;DHT22;39812;52.430;16.936;2023-04-28T07:07:43;8.80;85.10
53904;DHT22;39812;52.430;16.936;2023-04-28T07:10:09;8.90;84.90
53904;DHT22;39812;52.430;16.936;2023-04-28T07:12:36;8.90;84.30
53904;DHT22;39812;52.430;16.936;2023-04-28T07:15:02;9.00;84.40
53904;DHT22;39812;52.430;16.936;2023-04-28T07:17:28;9.20;83.70
53904;DHT22;39812;52.430;16.936;2023-04-28T07:19:53;9.30;82.80
53904;DHT22;39812;52.430;16.936;2023-04-28T07:22:19;9.30;82.80
53904;DHT22;39812;52.430;16.936;2023-04-28T07:24:44;9.40;82.00
53904;DHT22;39812;52.430;16.936;2023-04-28T07:27:11;9.50;82.20
53904;DHT22;39812;52.430;16.936;2023-04-28T07:29:37;9.70;81.30
53904;DHT22;39812;52.430;16.936;2023-04-28T07:32:02;9.80;79.80
53904;DHT22;39812;52.430;16.936;2023-04-28T07:34:35;10.00;78.40
53904;DHT22;39812;52.430;16.936;2023-04-28T07:37:02;10.10;78.90
53904;DHT22;39812;52.430;16.936;2023-04-28T07:39:27;10.20;78.60
53904;DHT22;39812;52.430;16.936;2023-04-28T07:41:53;10.20;77.80
53904;DHT22;39812;52.430;16.936;2023-04-28T07:44:19;10.30;79.90
53904;DHT22;39812;52.430;16.936;2023-04-28T07:46:44;10.30;77.50
53904;DHT22;39812;52.430;16.936;2023-04-28T07:49:10;10.40;78.60
53904;DHT22;39812;52.430;16.936;2023-04-28T07:51:36;10.50;79.30
53904;DHT22;39812;52.430;16.936;2023-04-28T07:54:02;10.60;79.10
53904;DHT22;39812;52.430;16.936;2023-04-28T07:56:27;10.70;76.80
53904;DHT22;39812;52.430;16.936;2023-04-28T07:58:53;10.60;76.40
53904;DHT22;39812;52.430;16.936;2023-04-28T08:01:18;10.50;76.70
53904;DHT22;39812;52.430;16.936;2023-04-28T08:03:44;10.50;76.90
53904;DHT22;39812;52.430;16.936;2023-04-28T08:06:10;10.50;76.50
53904;DHT22;39812;52.430;16.936;2023-04-28T08:08:35;10.50;76.10
53904;DHT22;39812;52.430;16.936;2023-04-28T08:11:01;10.50;75.80
53904;DHT22;39812;52.430;16.936;2023-04-28T08:13:27;10.50;75.30
53904;DHT22;39812;52.430;16.936;2023-04-28T08:15:53;10.60;74.80
53904;DHT22;39812;52.430;16.936;2023-04-28T08:18:21;10.60;75.20
53904;DHT22;39812;52.430;16.936;2023-04-28T08:20:46;10.60;74.70
53904;DHT22;39812;52.430;16.936;2023-04-28T08:23:12;10.70;75.10
53904;DHT22;39812;52.430;16.936;2023-04-28T08:25:38;10.70;74.40
53904;DHT22;39812;52.430;16.936;2023-04-28T08:28:03;10.70;73.90
53904;DHT22;39812;52.430;16.936;2023-04-28T08:30:31;10.70;74.10
53904;DHT22;39812;52.430;16.936;2023-04-28T08:32:56;10.70;73.90
53904;DHT22;39812;52.430;16.936;2023-04-28T08:35:22;10.80;74.30
53904;DHT22;39812;52.430;16.936;2023-04-28T08:37:48;10.90;74.40
53904;DHT22;39812;52.430;16.936;2023-04-28T08:40:14;10.90;74.40
53904;DHT22;39812;52.430;16.936;2023-04-28T08:42:40;10.90;73.40
53904;DHT22;39812;52.430;16.936;2023-04-28T08:45:07;10.90;73.30
53904;DHT22;39812;52.430;16.936;2023-04-28T08:47:38;10.90;74.40
53904;DHT22;39812;52.430;16.936;2023-04-28T08:50:06;11.00;74.40
53904;DHT22;39812;52.430;16.936;2023-04-28T08:52:33;11.10;74.60
53904;DHT22;39812;52.430;16.936;2023-04-28T08:54:59;11.20;73.00
53904;DHT22;39812;52.430;16.936;2023-04-28T08:57:27;11.30;73.10
53904;DHT22;39812;52.430;16.936;2023-04-28T08:59:54;11.30;73.40
53904;DHT22;39812;52.430;16.936;2023-04-28T09:02:19;11.40;73.60
53904;DHT22;39812;52.430;16.936;2023-04-28T09:04:48;11.40;73.30
53904;DHT22;39812;52.430;16.936;2023-04-28T09:07:14;11.50;72.90
53904;DHT22;39812;52.430;16.936;2023-04-28T09:09:40;11.60;73.10
53904;DHT22;39812;52.430;16.936;2023-04-28T09:12:06;11.70;73.00
53904;DHT22;39812;52.430;16.936;2023-04-28T09:14:33;11.70;73.10
53904;DHT22;39812;52.430;16.936;2023-04-28T09:16:59;11.80;73.10
53904;DHT22;39812;52.430;16.936;2023-04-28T09:19:32;11.90;72.40
53904;DHT22;39812;52.430;16.936;2023-04-28T09:21:58;12.10;72.90
53904;DHT22;39812;52.430;16.936;2023-04-28T09:24:36;12.10;72.50
53904;DHT22;39812;52.430;16.936;2023-04-28T09:27:05;12.10;72.30
53904;DHT22;39812;52.430;16.936;2023-04-28T09:29:32;12.30;72.90
53904;DHT22;39812;52.430;16.936;2023-04-28T09:32:30;12.50;73.60
53904;DHT22;39812;52.430;16.936;2023-04-28T09:34:56;12.60;73.50
53904;DHT22;39812;52.430;16.936;2023-04-28T09:37:23;12.60;71.70
53904;DHT22;39812;52.430;16.936;2023-04-28T09:39:53;12.50;70.80
53904;DHT22;39812;52.430;16.936;2023-04-28T09:45:05;12.60;70.40
53904;DHT22;39812;52.430;16.936;2023-04-28T09:47:32;12.60;71.20
53904;DHT22;39812;52.430;16.936;2023-04-28T09:50:01;12.70;70.50
53904;DHT22;39812;52.430;16.936;2023-04-28T09:52:27;12.80;70.60
53904;DHT22;39812;52.430;16.936;2023-04-28T09:54:55;12.80;70.40
53904;DHT22;39812;52.430;16.936;2023-04-28T09:57:21;13.00;70.70
53904;DHT22;39812;52.430;16.936;2023-04-28T09:59:50;13.00;70.50
53904;DHT22;39812;52.430;16.936;2023-04-28T10:02:16;13.20;70.10
53904;DHT22;39812;52.430;16.936;2023-04-28T10:04:48;13.20;70.00
53904;DHT22;39812;52.430;16.936;2023-04-28T10:07:15;13.20;70.20
53904;DHT22;39812;52.430;16.936;2023-04-28T10:09:48;13.40;69.70
53904;DHT22;39812;52.430;16.936;2023-04-28T10:12:17;13.50;69.30
53904;DHT22;39812;52.430;16.936;2023-04-28T10:14:44;13.70;69.60
53904;DHT22;39812;52.430;16.936;2023-04-28T10:17:10;13.80;68.60
53904;DHT22;39812;52.430;16.936;2023-04-28T10:19:39;13.40;69.00
53904;DHT22;39812;52.430;16.936;2023-04-28T10:27:42;13.90;68.40
53904;DHT22;39812;52.430;16.936;2023-04-28T10:30:12;13.90;68.70
53904;DHT22;39812;52.430;16.936;2023-04-28T10:32:38;14.10;68.20
53904;DHT22;39812;52.430;16.936;2023-04-28T10:35:45;14.30;68.70
53904;DHT22;39812;52.430;16.936;2023-04-28T10:38:16;14.60;67.80
53904;DHT22;39812;52.430;16.936;2023-04-28T10:40:42;14.70;67.40
53904;DHT22;39812;52.430;16.936;2023-04-28T10:43:10;14.80;67.40
53904;DHT22;39812;52.430;16.936;2023-04-28T10:48:14;15.30;67.10
53904;DHT22;39812;52.430;16.936;2023-04-28T10:56:08;14.90;67.50
53904;DHT22;39812;52.430;16.936;2023-04-28T10:58:34;15.20;67.20
53904;DHT22;39812;52.430;16.936;2023-04-28T11:06:40;15.80;65.80
53904;DHT22;39812;52.430;16.936;2023-04-28T11:19:53;16.70;63.80
53904;DHT22;39812;52.430;16.936;2023-04-28T11:22:21;17.30;62.70
53904;DHT22;39812;52.430;16.936;2023-04-28T11:24:58;17.60;62.30
53904;DHT22;39812;52.430;16.936;2023-04-28T11:27:25;18.10;61.00
53904;DHT22;39812;52.430;16.936;2023-04-28T11:29:51;18.90;59.80
53904;DHT22;39812;52.430;16.936;2023-04-28T11:32:28;19.90;58.60
53904;DHT22;39812;52.430;16.936;2023-04-28T11:34:54;21.00;57.30
53904;DHT22;39812;52.430;16.936;2023-04-28T11:37:20;22.00;54.40
53904;DHT22;39812;52.430;16.936;2023-04-28T11:39:47;24.00;52.30
53904;DHT22;39812;52.430;16.936;2023-04-28T11:42:13;24.80;49.90
53904;DHT22;39812;52.430;16.936;2023-04-28T11:44:39;24.80;48.70
53904;DHT22;39812;52.430;16.936;2023-04-28T11:47:05;24.50;48.30
53904;DHT22;39812;52.430;16.936;2023-04-28T11:49:44;24.60;47.60
53904;DHT22;39812;52.430;16.936;2023-04-28T11:52:11;25.30;47.20
53904;DHT22;39812;52.430;16.936;2023-04-28T11:54:37;26.70;46.20
53904;DHT22;39812;52.430;16.936;2023-04-28T11:57:03;28.70;44.60
53904;DHT22;39812;52.430;16.936;2023-04-28T11:59:32;29.80;42.00
53904;DHT22;39812;52.430;16.936;2023-04-28T12:02:05;28.80;41.50
53904;DHT22;39812;52.430;16.936;2023-04-28T12:04:36;29.60;42.10
53904;DHT22;39812;52.430;16.936;2023-04-28T12:07:16;31.30;39.70
53904;DHT22;39812;52.430;16.936;2023-04-28T12:09:44;31.70;38.70
53904;DHT22;39812;52.430;16.936;2023-04-28T12:17:26;32.80;36.70
53904;DHT22;39812;52.430;16.936;2023-04-28T12:19:56;33.20;36.90
53904;DHT22;39812;52.430;16.936;2023-04-28T12:22:23;34.00;36.20
53904;DHT22;39812;52.430;16.936;2023-04-28T12:25:10;31.80;35.30
53904;DHT22;39812;52.430;16.936;2023-04-28T12:27:37;31.20;36.60
53904;DHT22;39812;52.430;16.936;2023-04-28T12:30:26;30.50;36.90
53904;DHT22;39812;52.430;16.936;2023-04-28T12:32:51;29.00;37.80
53904;DHT22;39812;52.430;16.936;2023-04-28T12:35:19;28.00;38.70
53904;DHT22;39812;52.430;16.936;2023-04-28T12:37:45;26.60;40.00
53904;DHT22;39812;52.430;16.936;2023-04-28T12:40:11;27.00;40.80
53904;DHT22;39812;52.430;16.936;2023-04-28T12:42:38;29.10;39.70
53904;DHT22;39812;52.430;16.936;2023-04-28T12:45:05;30.50;38.30
53904;DHT22;39812;52.430;16.936;2023-04-28T12:47:31;29.90;37.60
53904;DHT22;39812;52.430;16.936;2023-04-28T12:49:57;29.40;38.50
53904;DHT22;39812;52.430;16.936;2023-04-28T12:52:23;30.90;37.80
53904;DHT22;39812;52.430;16.936;2023-04-28T12:54:48;32.40;37.20
53904;DHT22;39812;52.430;16.936;2023-04-28T12:57:18;32.50;36.20
53904;DHT22;39812;52.430;16.936;2023-04-28T12:59:45;32.70;36.50
53904;DHT22;39812;52.430;16.936;2023-04-28T13:02:14;32.90;36.10
53904;DHT22;39812;52.430;16.936;2023-04-28T13:04:40;32.50;35.80
53904;DHT22;39812;52.430;16.936;2023-04-28T13:07:16;32.00;36.00
53904;DHT22;39812;52.430;16.936;2023-04-28T13:09:42;33.50;35.70
53904;DHT22;39812;52.430;16.936;2023-04-28T13:12:08;34.30;35.10
53904;DHT22;39812;52.430;16.936;2023-04-28T13:14:34;34.00;34.90
53904;DHT22;39812;52.430;16.936;2023-04-28T13:17:00;33.80;35.30
53904;DHT22;39812;52.430;16.936;2023-04-28T13:19:27;34.70;34.80
53904;DHT22;39812;52.430;16.936;2023-04-28T13:21:54;35.60;34.30
53904;DHT22;39812;52.430;16.936;2023-04-28T13:24:20;34.60;34.50
53904;DHT22;39812;52.430;16.936;2023-04-28T13:26:45;33.90;34.30
53904;DHT22;39812;52.430;16.936;2023-04-28T13:29:11;34.70;34.60
53904;DHT22;39812;52.430;16.936;2023-04-28T13:31:38;34.10;33.60
53904;DHT22;39812;52.430;16.936;2023-04-28T13:34:04;34.90;34.20
53904;DHT22;39812;52.430;16.936;2023-04-28T13:36:30;34.10;34.10
53904;DHT22;39812;52.430;16.936;2023-04-28T13:38:59;33.70;34.50
53904;DHT22;39812;52.430;16.936;2023-04-28T13:41:25;34.80;34.80
53904;DHT22;39812;52.430;16.936;2023-04-28T13:43:51;36.80;33.60
53904;DHT22;39812;52.430;16.936;2023-04-28T13:46:17;38.40;33.10
53904;DHT22;39812;52.430;16.936;2023-04-28T13:48:42;36.70;31.90
53904;DHT22;39812;52.430;16.936;2023-04-28T13:51:08;35.50;32.60
53904;DHT22;39812;52.430;16.936;2023-04-28T13:53:35;32.70;33.80
53904;DHT22;39812;52.430;16.936;2023-04-28T13:56:05;30.40;35.40
53904;DHT22;39812;52.430;16.936;2023-04-28T13:58:31;31.40;37.00
53904;DHT22;39812;52.430;16.936;2023-04-28T14:00:57;31.60;35.50
53904;DHT22;39812;52.430;16.936;2023-04-28T14:03:24;30.10;36.00
53904;DHT22;39812;52.430;16.936;2023-04-28T14:05:51;30.40;35.60
53904;DHT22;39812;52.430;16.936;2023-04-28T14:08:18;29.30;36.10
53904;DHT22;39812;52.430;16.936;2023-04-28T14:10:44;30.20;36.70
53904;DHT22;39812;52.430;16.936;2023-04-28T14:13:10;32.20;35.80
53904;DHT22;39812;52.430;16.936;2023-04-28T14:15:36;33.00;34.70
53904;DHT22;39812;52.430;16.936;2023-04-28T14:18:02;32.50;34.80
53904;DHT22;39812;52.430;16.936;2023-04-28T14:20:27;33.00;34.70
53904;DHT22;39812;52.430;16.936;2023-04-28T14:22:53;33.90;34.80
53904;DHT22;39812;52.430;16.936;2023-04-28T14:25:19;34.30;34.80
53904;DHT22;39812;52.430;16.936;2023-04-28T14:27:47;32.10;34.00
53904;DHT22;39812;52.430;16.936;2023-04-28T14:30:13;32.90;35.10
53904;DHT22;39812;52.430;16.936;2023-04-28T14:32:39;31.80;34.70
53904;DHT22;39812;52.430;16.936;2023-04-28T14:35:05;30.10;35.80
53904;DHT22;39812;52.430;16.936;2023-04-28T14:37:31;27.50;37.40
53904;DHT22;39812;52.430;16.936;2023-04-28T14:39:58;27.40;37.80
53904;DHT22;39812;52.430;16.936;2023-04-28T14:42:27;26.70;38.80
53904;DHT22;39812;52.430;16.936;2023-04-28T14:44:54;29.10;38.60
53904;DHT22;39812;52.430;16.936;2023-04-28T14:47:19;30.20;36.50
53904;DHT22;39812;52.430;16.936;2023-04-28T14:49:46;31.60;36.00
53904;DHT22;39812;52.430;16.936;2023-04-28T14:52:12;31.80;35.20
53904;DHT22;39812;52.430;16.936;2023-04-28T14:54:38;32.30;35.20
53904;DHT22;39812;52.430;16.936;2023-04-28T14:57:04;32.10;34.90
53904;DHT22;39812;52.430;16.936;2023-04-28T14:59:29;32.90;34.70
53904;DHT22;39812;52.430;16.936;2023-04-28T15:01:55;33.80;34.40
53904;DHT22;39812;52.430;16.936;2023-04-28T15:04:21;34.00;34.20
53904;DHT22;39812;52.430;16.936;2023-04-28T15:06:53;32.60;34.10
53904;DHT22;39812;52.430;16.936;2023-04-28T15:09:19;32.50;34.70
53904;DHT22;39812;52.430;16.936;2023-04-28T15:11:44;32.40;34.90
53904;DHT22;39812;52.430;16.936;2023-04-28T15:14:10;32.60;34.80
53904;DHT22;39812;52.430;16.936;2023-04-28T15:16:36;33.30;34.50
53904;DHT22;39812;52.430;16.936;2023-04-28T15:19:01;32.40;34.50
53904;DHT22;39812;52.430;16.936;2023-04-28T15:21:27;32.40;34.50
53904;DHT22;39812;52.430;16.936;2023-04-28T15:23:53;33.20;34.40
53904;DHT22;39812;52.430;16.936;2023-04-28T15:26:19;33.70;34.10
53904;DHT22;39812;52.430;16.936;2023-04-28T15:28:45;35.00;34.10
53904;DHT22;39812;52.430;16.936;2023-04-28T15:31:11;34.50;33.70
53904;DHT22;39812;52.430;16.936;2023-04-28T15:33:36;36.70;33.40
53904;DHT22;39812;52.430;16.936;2023-04-28T15:36:02;36.70;32.60
53904;DHT22;39812;52.430;16.936;2023-04-28T15:38:28;36.40;32.30
53904;DHT22;39812;52.430;16.936;2023-04-28T15:40:56;35.00;33.00
53904;DHT22;39812;52.430;16.936;2023-04-28T15:43:21;35.10;32.90
53904;DHT22;39812;52.430;16.936;2023-04-28T15:45:47;34.90;33.40
53904;DHT22;39812;52.430;16.936;2023-04-28T15:48:13;34.00;33.40
53904;DHT22;39812;52.430;16.936;2023-04-28T15:50:39;33.50;33.90
53904;DHT22;39812;52.430;16.936;2023-04-28T15:53:05;33.00;34.30
53904;DHT22;39812;52.430;16.936;2023-04-28T15:55:32;32.40;34.80
53904;DHT22;39812;52.430;16.936;2023-04-28T15:57:59;32.60;34.90